createdAt,value
2016-10-05T00:00:06.824Z,48.93
2016-10-05T00:00:47.536Z,49.02
2016-10-05T00:01:28.252Z,48.83
2016-10-05T00:02:08.956Z,49.02
2016-10-05T00:02:49.653Z,48.93
2016-10-05T00:03:30.323Z,49.02
2016-10-05T00:04:11.034Z,49.02
2016-10-05T00:04:51.706Z,49.12
2016-10-05T00:05:32.455Z,48.83
2016-10-05T00:06:13.152Z,49.02
2016-10-05T00:06:53.877Z,48.93
2016-10-05T00:07:34.567Z,48.93
2016-10-05T00:08:15.261Z,49.22
2016-10-05T00:08:55.928Z,49.02
2016-10-05T00:09:36.635Z,49.02
2016-10-05T00:10:17.332Z,48.93
2016-10-05T00:10:58.028Z,49.12
2016-10-05T00:11:38.735Z,48.93
2016-10-05T00:12:19.414Z,48.93
2016-10-05T00:13:00.088Z,49.12
2016-10-05T00:13:40.754Z,49.02
2016-10-05T00:14:21.437Z,48.93
2016-10-05T00:15:02.085Z,49.02
2016-10-05T00:15:42.776Z,48.93
2016-10-05T00:16:23.427Z,48.83
2016-10-05T00:17:04.099Z,48.83
2016-10-05T00:17:44.785Z,48.73
2016-10-05T00:18:25.511Z,49.02
2016-10-05T00:19:06.182Z,49.02
2016-10-05T00:19:46.918Z,48.93
2016-10-05T00:20:27.611Z,48.93
2016-10-05T00:21:08.311Z,49.22
2016-10-05T00:21:49.009Z,49.22
2016-10-05T00:22:29.696Z,49.02
2016-10-05T00:23:10.423Z,48.83
2016-10-05T00:23:51.127Z,49.22
2016-10-05T00:24:31.885Z,49.22
2016-10-05T00:25:12.609Z,49.02
2016-10-05T00:25:53.274Z,49.51
2016-10-05T00:26:33.962Z,49.02
2016-10-05T00:27:14.702Z,49.22
2016-10-05T00:27:55.398Z,49.22
2016-10-05T00:28:36.093Z,49.22
2016-10-05T00:29:16.776Z,49.51
2016-10-05T00:29:57.471Z,49.12
2016-10-05T00:30:38.159Z,49.32
2016-10-05T00:31:18.851Z,49.12
2016-10-05T00:31:59.593Z,49.32
2016-10-05T00:32:40.242Z,49.22
2016-10-05T00:33:20.909Z,49.12
2016-10-05T00:34:01.647Z,49.12
2016-10-05T00:34:42.354Z,49.71
2016-10-05T00:35:23.022Z,49.51
2016-10-05T00:36:03.712Z,49.41
2016-10-05T00:36:44.421Z,49.32
2016-10-05T00:37:25.102Z,49.32
2016-10-05T00:38:05.765Z,49.32
2016-10-05T00:38:46.433Z,49.32
2016-10-05T00:39:27.167Z,49.32
2016-10-05T00:40:07.882Z,49.32
2016-10-05T00:40:48.543Z,49.61
2016-10-05T00:41:29.236Z,49.71
2016-10-05T00:42:09.946Z,49.61
2016-10-05T00:42:50.584Z,49.02
2016-10-05T00:43:31.258Z,49.32
2016-10-05T00:44:11.947Z,49.32
2016-10-05T00:44:52.653Z,49.22
2016-10-05T00:45:33.338Z,49.22
2016-10-05T00:46:14.022Z,49.12
2016-10-05T00:46:54.690Z,49.51
2016-10-05T00:47:35.369Z,49.61
2016-10-05T00:48:16.081Z,49.41
2016-10-05T00:48:56.758Z,49.51
2016-10-05T00:49:37.473Z,49.51
2016-10-05T00:50:18.172Z,49.12
2016-10-05T00:50:58.806Z,49.41
2016-10-05T00:51:39.500Z,49.22
2016-10-05T00:52:20.217Z,49.32
2016-10-05T00:53:00.894Z,49.51
2016-10-05T00:53:41.582Z,49.22
2016-10-05T00:54:22.272Z,49.22
2016-10-05T00:55:02.931Z,49.32
2016-10-05T00:55:43.619Z,49.41
2016-10-05T00:56:24.308Z,49.61
2016-10-05T00:57:05.019Z,49.51
2016-10-05T00:57:45.706Z,49.32
2016-10-05T00:58:26.445Z,49.51
2016-10-05T00:59:07.111Z,49.71
2016-10-05T00:59:47.782Z,49.61
2016-10-05T01:00:28.465Z,49.41
2016-10-05T01:01:09.108Z,49.41
2016-10-05T01:01:49.828Z,49.51
2016-10-05T01:02:30.536Z,49.51
2016-10-05T01:03:11.223Z,49.8
2016-10-05T01:03:51.929Z,49.61
2016-10-05T01:04:32.594Z,49.51
2016-10-05T01:05:13.330Z,49.51
2016-10-05T01:05:53.997Z,49.61
2016-10-05T01:06:34.693Z,49.51
2016-10-05T01:07:15.382Z,49.41
2016-10-05T01:07:56.099Z,49.51
2016-10-05T01:08:36.774Z,49.51
2016-10-05T01:09:17.472Z,49.51
2016-10-05T01:09:58.197Z,49.41
2016-10-05T01:10:38.905Z,49.61
2016-10-05T01:11:19.587Z,49.8
2016-10-05T01:12:00.293Z,49.61
2016-10-05T01:12:40.974Z,49.99
2016-10-05T01:13:21.685Z,49.8
2016-10-05T01:14:02.357Z,49.71
2016-10-05T01:14:43.010Z,49.8
2016-10-05T01:15:23.696Z,49.51
2016-10-05T01:16:04.390Z,50.09
2016-10-05T01:16:45.081Z,50.09
2016-10-05T01:17:25.769Z,50.19
2016-10-05T01:18:06.455Z,49.9
2016-10-05T01:18:47.139Z,49.9
2016-10-05T01:19:27.830Z,49.99
2016-10-05T01:20:08.536Z,50.09
2016-10-05T01:20:50.084Z,49.99
2016-10-05T01:21:29.921Z,50.19
2016-10-05T01:22:10.601Z,49.9
2016-10-05T01:22:51.297Z,49.8
2016-10-05T01:23:31.968Z,49.8
2016-10-05T01:24:12.714Z,49.9
2016-10-05T01:24:53.382Z,49.8
2016-10-05T01:25:34.130Z,49.99
2016-10-05T01:26:14.870Z,49.9
2016-10-05T01:26:55.501Z,49.9
2016-10-05T01:27:36.213Z,49.51
2016-10-05T01:28:16.871Z,49.9
2016-10-05T01:28:57.553Z,49.8
2016-10-05T01:29:38.237Z,49.71
2016-10-05T01:30:18.923Z,49.8
2016-10-05T01:30:59.647Z,49.9
2016-10-05T01:31:40.325Z,49.9
2016-10-05T01:32:21.059Z,49.8
2016-10-05T01:33:01.737Z,49.9
2016-10-05T01:33:42.395Z,49.8
2016-10-05T01:34:23.081Z,49.9
2016-10-05T01:35:03.757Z,49.8
2016-10-05T01:35:44.457Z,49.8
2016-10-05T01:36:25.127Z,49.71
2016-10-05T01:37:05.774Z,49.9
2016-10-05T01:37:46.473Z,49.9
2016-10-05T01:38:27.177Z,49.51
2016-10-05T01:39:07.862Z,49.8
2016-10-05T01:39:48.545Z,49.61
2016-10-05T01:40:29.252Z,49.61
2016-10-05T01:41:09.975Z,49.9
2016-10-05T01:41:50.634Z,49.9
2016-10-05T01:42:31.313Z,49.9
2016-10-05T01:43:12.017Z,49.51
2016-10-05T01:43:52.716Z,49.41
2016-10-05T01:44:33.433Z,49.61
2016-10-05T01:45:14.155Z,49.61
2016-10-05T01:45:54.823Z,49.61
2016-10-05T01:46:35.492Z,49.61
2016-10-05T01:47:16.161Z,49.51
2016-10-05T01:47:56.824Z,49.41
2016-10-05T01:48:37.491Z,49.61
2016-10-05T01:49:18.185Z,49.9
2016-10-05T01:49:58.908Z,49.61
2016-10-05T01:50:39.603Z,49.8
2016-10-05T01:51:20.314Z,49.8
2016-10-05T01:52:00.987Z,49.8
2016-10-05T01:52:41.649Z,49.32
2016-10-05T01:53:22.307Z,49.8
2016-10-05T01:54:03.020Z,49.8
2016-10-05T01:54:43.736Z,49.9
2016-10-05T01:55:24.453Z,49.9
2016-10-05T01:56:05.121Z,49.9
2016-10-05T01:56:45.810Z,49.9
2016-10-05T01:57:26.530Z,49.9
2016-10-05T01:58:07.227Z,49.99
2016-10-05T01:58:47.914Z,49.41
2016-10-05T01:59:28.592Z,49.51
2016-10-05T02:00:09.352Z,50.19
2016-10-05T02:00:50.024Z,49.61
2016-10-05T02:01:31.264Z,49.9
2016-10-05T02:02:11.980Z,49.99
2016-10-05T02:02:52.673Z,49.8
2016-10-05T02:03:33.373Z,49.99
2016-10-05T02:04:14.039Z,50.09
2016-10-05T02:04:54.721Z,50.09
2016-10-05T02:05:35.395Z,49.99
2016-10-05T02:06:16.063Z,49.8
2016-10-05T02:06:56.744Z,50.19
2016-10-05T02:07:37.414Z,49.8
2016-10-05T02:08:18.087Z,49.99
2016-10-05T02:08:58.735Z,50.29
2016-10-05T02:09:39.419Z,50.29
2016-10-05T02:10:20.113Z,50.29
2016-10-05T02:11:00.847Z,50.19
2016-10-05T02:11:41.527Z,50.29
2016-10-05T02:12:22.195Z,50.19
2016-10-05T02:13:02.871Z,50.48
2016-10-05T02:13:43.562Z,50.19
2016-10-05T02:14:24.228Z,50.29
2016-10-05T02:15:04.908Z,50.48
2016-10-05T02:15:45.591Z,50.09
2016-10-05T02:16:26.250Z,50.09
2016-10-05T02:17:06.950Z,50.19
2016-10-05T02:17:47.582Z,50.09
2016-10-05T02:18:28.216Z,49.9
2016-10-05T02:19:08.945Z,50.38
2016-10-05T02:19:49.636Z,50.19
2016-10-05T02:20:30.343Z,50.58
2016-10-05T02:21:10.984Z,50.38
2016-10-05T02:21:51.621Z,50.29
2016-10-05T02:22:32.331Z,50.58
2016-10-05T02:23:13.016Z,50.58
2016-10-05T02:23:53.707Z,50.58
2016-10-05T02:24:34.422Z,50.58
2016-10-05T02:25:15.092Z,50.48
2016-10-05T02:25:55.761Z,50.58
2016-10-05T02:26:36.552Z,50.48
2016-10-05T02:27:17.271Z,50.19
2016-10-05T02:27:57.981Z,50.48
2016-10-05T02:28:38.667Z,50.48
2016-10-05T02:29:19.352Z,50.09
2016-10-05T02:30:00.002Z,50.38
2016-10-05T02:30:40.652Z,50.19
2016-10-05T02:31:21.346Z,50.19
2016-10-05T02:32:02.016Z,50.09
2016-10-05T02:32:42.713Z,50.48
2016-10-05T02:33:23.353Z,50.48
2016-10-05T02:34:04.042Z,50.58
2016-10-05T02:34:44.740Z,50.58
2016-10-05T02:35:25.399Z,50.58
2016-10-05T02:36:06.120Z,50.19
2016-10-05T02:36:46.829Z,50.48
2016-10-05T02:37:27.504Z,50.48
2016-10-05T02:38:08.199Z,49.99
2016-10-05T02:38:48.871Z,50.58
2016-10-05T02:39:29.575Z,50.48
2016-10-05T02:40:10.231Z,50.48
2016-10-05T02:40:50.933Z,50.58
2016-10-05T02:41:31.657Z,50.38
2016-10-05T02:42:12.356Z,50.48
2016-10-05T02:42:53.009Z,50.48
2016-10-05T02:43:33.637Z,50.58
2016-10-05T02:44:14.376Z,50.48
2016-10-05T02:44:55.068Z,50.48
2016-10-05T02:45:35.744Z,50.68
2016-10-05T02:46:16.444Z,50.29
2016-10-05T02:46:57.127Z,50.38
2016-10-05T02:47:37.841Z,50.09
2016-10-05T02:48:18.531Z,50.58
2016-10-05T02:48:59.229Z,50.38
2016-10-05T02:49:39.849Z,50.48
2016-10-05T02:50:20.546Z,50.29
2016-10-05T02:51:01.217Z,50.29
2016-10-05T02:51:41.898Z,50.38
2016-10-05T02:52:22.558Z,50.19
2016-10-05T02:53:03.257Z,50.38
2016-10-05T02:53:43.925Z,50.58
2016-10-05T02:54:24.632Z,50.29
2016-10-05T02:55:05.332Z,50.38
2016-10-05T02:55:46.027Z,50.58
2016-10-05T02:56:26.707Z,50.29
2016-10-05T02:57:07.443Z,50.58
2016-10-05T02:57:48.156Z,50.68
2016-10-05T02:58:28.782Z,50.8
2016-10-05T02:59:09.479Z,50.19
2016-10-05T02:59:50.206Z,50.29
2016-10-05T03:00:30.914Z,50.09
2016-10-05T03:01:11.647Z,50.38
2016-10-05T03:01:52.353Z,50.48
2016-10-05T03:02:33.051Z,50.58
2016-10-05T03:03:13.762Z,50.29
2016-10-05T03:03:54.439Z,50.58
2016-10-05T03:04:35.112Z,50.58
2016-10-05T03:05:15.790Z,50.6
2016-10-05T03:05:56.474Z,50.77
2016-10-05T03:06:37.171Z,50.58
2016-10-05T03:07:17.849Z,50.48
2016-10-05T03:07:58.544Z,50.58
2016-10-05T03:08:39.222Z,50.68
2016-10-05T03:09:19.851Z,50.09
2016-10-05T03:10:00.524Z,50.58
2016-10-05T03:10:41.188Z,50.58
2016-10-05T03:11:21.849Z,50.51
2016-10-05T03:12:02.530Z,50.58
2016-10-05T03:12:43.193Z,50.68
2016-10-05T03:13:23.878Z,50.58
2016-10-05T03:14:04.590Z,50.58
2016-10-05T03:14:45.290Z,50.48
2016-10-05T03:15:25.961Z,50.48
2016-10-05T03:16:06.634Z,50.51
2016-10-05T03:16:47.336Z,50.6
2016-10-05T03:17:27.992Z,50.48
2016-10-05T03:18:08.707Z,50.58
2016-10-05T03:18:49.383Z,50.68
2016-10-05T03:19:30.089Z,50.48
2016-10-05T03:20:10.737Z,50.58
2016-10-05T03:20:51.412Z,50.87
2016-10-05T03:21:32.092Z,50.68
2016-10-05T03:22:12.791Z,50.68
2016-10-05T03:22:53.493Z,50.58
2016-10-05T03:23:34.173Z,50.8
2016-10-05T03:24:14.860Z,50.87
2016-10-05T03:24:55.534Z,50.68
2016-10-05T03:25:36.216Z,50.51
2016-10-05T03:26:16.949Z,50.68
2016-10-05T03:26:57.610Z,50.48
2016-10-05T03:27:38.337Z,50.68
2016-10-05T03:28:18.990Z,50.7
2016-10-05T03:28:59.672Z,50.58
2016-10-05T03:29:40.354Z,50.68
2016-10-05T03:30:21.045Z,50.68
2016-10-05T03:31:01.735Z,50.58
2016-10-05T03:31:42.436Z,50.58
2016-10-05T03:32:23.125Z,50.51
2016-10-05T03:33:03.805Z,50.77
2016-10-05T03:33:44.476Z,50.87
2016-10-05T03:34:25.182Z,50.48
2016-10-05T03:35:05.852Z,50.48
2016-10-05T03:35:46.552Z,50.58
2016-10-05T03:36:27.220Z,50.58
2016-10-05T03:37:07.906Z,50.96
2016-10-05T03:37:48.646Z,50.8
2016-10-05T03:38:29.312Z,50.6
2016-10-05T03:39:09.973Z,50.48
2016-10-05T03:39:50.694Z,50.58
2016-10-05T03:40:31.340Z,50.6
2016-10-05T03:41:12.070Z,50.58
2016-10-05T03:41:52.738Z,50.87
2016-10-05T03:42:33.415Z,50.68
2016-10-05T03:43:14.095Z,50.6
2016-10-05T03:43:54.845Z,50.7
2016-10-05T03:44:35.534Z,50.7
2016-10-05T03:45:16.242Z,50.89
2016-10-05T03:45:56.913Z,50.29
2016-10-05T03:46:37.649Z,50.68
2016-10-05T03:47:18.354Z,50.68
2016-10-05T03:47:59.078Z,50.96
2016-10-05T03:48:39.745Z,50.48
2016-10-05T03:49:20.472Z,50.89
2016-10-05T03:50:01.155Z,50.8
2016-10-05T03:50:41.881Z,50.87
2016-10-05T03:51:22.567Z,50.7
2016-10-05T03:52:03.236Z,50.87
2016-10-05T03:52:43.922Z,50.89
2016-10-05T03:53:24.576Z,50.99
2016-10-05T03:54:05.252Z,50.8
2016-10-05T03:54:45.971Z,50.8
2016-10-05T03:55:26.622Z,50.68
2016-10-05T03:56:07.325Z,50.58
2016-10-05T03:56:48.051Z,50.7
2016-10-05T03:57:28.704Z,50.58
2016-10-05T03:58:09.415Z,50.87
2016-10-05T03:58:50.058Z,50.77
2016-10-05T03:59:30.721Z,50.6
2016-10-05T04:00:11.452Z,50.77
2016-10-05T04:00:52.132Z,50.99
2016-10-05T04:01:32.815Z,50.8
2016-10-05T04:02:13.520Z,50.77
2016-10-05T04:02:54.191Z,50.58
2016-10-05T04:03:34.845Z,50.87
2016-10-05T04:04:15.563Z,50.7
2016-10-05T04:04:56.253Z,50.99
2016-10-05T04:05:36.988Z,50.8
2016-10-05T04:06:17.683Z,51.06
2016-10-05T04:06:58.391Z,51.06
2016-10-05T04:07:39.072Z,50.87
2016-10-05T04:08:19.753Z,50.96
2016-10-05T04:09:00.423Z,50.77
2016-10-05T04:09:41.124Z,51.09
2016-10-05T04:10:21.768Z,51.35
2016-10-05T04:11:02.491Z,51.06
2016-10-05T04:11:43.146Z,50.96
2016-10-05T04:12:23.818Z,50.89
2016-10-05T04:13:04.499Z,50.6
2016-10-05T04:13:45.207Z,51.09
2016-10-05T04:14:25.881Z,51.16
2016-10-05T04:15:06.544Z,50.87
2016-10-05T04:15:47.218Z,51.06
2016-10-05T04:16:27.881Z,51.16
2016-10-05T04:17:08.582Z,50.96
2016-10-05T04:17:49.329Z,50.77
2016-10-05T04:18:30.000Z,50.96
2016-10-05T04:19:10.687Z,50.77
2016-10-05T04:19:51.348Z,50.99
2016-10-05T04:20:31.996Z,50.8
2016-10-05T04:21:12.677Z,51.28
2016-10-05T04:21:53.338Z,51.06
2016-10-05T04:22:34.042Z,51.06
2016-10-05T04:23:14.711Z,51.26
2016-10-05T04:23:55.386Z,51.09
2016-10-05T04:24:36.093Z,51.09
2016-10-05T04:25:17.683Z,51.06
2016-10-05T04:25:57.462Z,50.89
2016-10-05T04:26:38.169Z,51.28
2016-10-05T04:27:18.805Z,51.38
2016-10-05T04:27:59.488Z,50.8
2016-10-05T04:28:40.207Z,50.99
2016-10-05T04:29:20.845Z,50.89
2016-10-05T04:30:01.525Z,51.09
2016-10-05T04:30:42.203Z,51.16
2016-10-05T04:31:22.890Z,51.06
2016-10-05T04:32:03.593Z,51.18
2016-10-05T04:32:44.291Z,51.16
2016-10-05T04:33:24.958Z,51.35
2016-10-05T04:34:05.666Z,51.06
2016-10-05T04:34:46.411Z,51.16
2016-10-05T04:35:27.133Z,50.89
2016-10-05T04:36:07.831Z,51.16
2016-10-05T04:36:48.539Z,51.16
2016-10-05T04:37:29.190Z,50.8
2016-10-05T04:38:09.867Z,51.18
2016-10-05T04:38:50.581Z,50.89
2016-10-05T04:39:31.289Z,51.06
2016-10-05T04:40:11.955Z,51.16
2016-10-05T04:40:52.638Z,51.16
2016-10-05T04:41:33.337Z,51.09
2016-10-05T04:42:13.995Z,51.28
2016-10-05T04:42:54.606Z,50.99
2016-10-05T04:43:35.330Z,51.16
2016-10-05T04:44:15.997Z,50.99
2016-10-05T04:44:56.660Z,51.18
2016-10-05T04:45:37.346Z,50.99
2016-10-05T04:46:17.988Z,51.09
2016-10-05T04:46:58.710Z,51.09
2016-10-05T04:47:39.433Z,51.09
2016-10-05T04:48:20.126Z,51.09
2016-10-05T04:49:00.815Z,51.18
2016-10-05T04:49:41.473Z,51.18
2016-10-05T04:50:22.182Z,50.99
2016-10-05T04:51:02.874Z,51.06
2016-10-05T04:51:43.552Z,51.09
2016-10-05T04:52:24.208Z,51.28
2016-10-05T04:53:04.858Z,50.99
2016-10-05T04:53:45.545Z,51.18
2016-10-05T04:54:26.214Z,51.18
2016-10-05T04:55:06.881Z,51.06
2016-10-05T04:55:47.564Z,51.06
2016-10-05T04:56:28.199Z,50.89
2016-10-05T04:57:08.885Z,51.09
2016-10-05T04:57:49.614Z,51.06
2016-10-05T04:58:30.325Z,50.96
2016-10-05T04:59:11.013Z,51.18
2016-10-05T04:59:51.731Z,51.18
2016-10-05T05:00:32.453Z,51.28
2016-10-05T05:01:13.167Z,51.28
2016-10-05T05:01:53.809Z,51.18
2016-10-05T05:02:34.510Z,50.89
2016-10-05T05:03:15.147Z,51.09
2016-10-05T05:03:55.832Z,51.09
2016-10-05T05:04:36.533Z,51.18
2016-10-05T05:05:17.168Z,51.09
2016-10-05T05:05:57.875Z,51.28
2016-10-05T05:06:38.569Z,50.99
2016-10-05T05:07:19.283Z,51.09
2016-10-05T05:07:59.998Z,51.18
2016-10-05T05:08:40.731Z,51.38
2016-10-05T05:09:21.446Z,51.18
2016-10-05T05:10:02.138Z,51.09
2016-10-05T05:10:42.813Z,51.18
2016-10-05T05:11:23.498Z,50.96
2016-10-05T05:12:04.177Z,51.18
2016-10-05T05:12:44.872Z,50.99
2016-10-05T05:13:25.577Z,51.06
2016-10-05T05:14:06.290Z,51.18
2016-10-05T05:14:46.988Z,51.18
2016-10-05T05:15:27.689Z,51.26
2016-10-05T05:16:08.320Z,51.28
2016-10-05T05:16:49.021Z,51.09
2016-10-05T05:17:29.682Z,51.28
2016-10-05T05:18:10.353Z,51.18
2016-10-05T05:18:51.034Z,51.16
2016-10-05T05:19:31.732Z,50.99
2016-10-05T05:20:12.417Z,51.18
2016-10-05T05:20:53.129Z,51.38
2016-10-05T05:21:33.777Z,51.18
2016-10-05T05:22:14.419Z,50.99
2016-10-05T05:22:55.142Z,51.28
2016-10-05T05:23:35.834Z,51.09
2016-10-05T05:24:16.502Z,51.09
2016-10-05T05:24:57.142Z,51.09
2016-10-05T05:25:37.847Z,51.09
2016-10-05T05:26:18.585Z,50.99
2016-10-05T05:26:59.280Z,51.09
2016-10-05T05:27:39.985Z,51.26
2016-10-05T05:28:20.652Z,51.65
2016-10-05T05:29:01.276Z,51.28
2016-10-05T05:29:41.999Z,51.09
2016-10-05T05:30:22.669Z,51.09
2016-10-05T05:31:03.350Z,51.09
2016-10-05T05:31:43.993Z,50.99
2016-10-05T05:32:24.649Z,50.89
2016-10-05T05:33:05.331Z,51.18
2016-10-05T05:33:46.031Z,50.77
2016-10-05T05:34:26.760Z,51.18
2016-10-05T05:35:07.457Z,51.18
2016-10-05T05:35:48.148Z,51.06
2016-10-05T05:36:28.868Z,51.18
2016-10-05T05:37:09.541Z,51.09
2016-10-05T05:37:50.205Z,51.09
2016-10-05T05:38:30.903Z,51.09
2016-10-05T05:39:11.605Z,51.09
2016-10-05T05:39:52.293Z,51.09
2016-10-05T05:40:32.961Z,50.7
2016-10-05T05:41:13.644Z,50.8
2016-10-05T05:41:54.318Z,51.28
2016-10-05T05:42:34.979Z,50.89
2016-10-05T05:43:15.660Z,50.8
2016-10-05T05:43:56.340Z,50.89
2016-10-05T05:44:37.033Z,50.7
2016-10-05T05:45:17.756Z,50.68
2016-10-05T05:45:58.445Z,50.89
2016-10-05T05:46:39.136Z,50.8
2016-10-05T05:47:19.799Z,50.8
2016-10-05T05:48:00.458Z,50.8
2016-10-05T05:48:41.143Z,51.16
2016-10-05T05:49:21.821Z,50.8
2016-10-05T05:50:02.560Z,50.68
2016-10-05T05:50:43.249Z,51.09
2016-10-05T05:51:23.896Z,50.8
2016-10-05T05:52:04.623Z,50.8
2016-10-05T05:52:45.328Z,50.89
2016-10-05T05:53:26.039Z,50.99
2016-10-05T05:54:06.742Z,50.8
2016-10-05T05:54:47.411Z,50.99
2016-10-05T05:55:28.123Z,50.89
2016-10-05T05:56:08.817Z,50.99
2016-10-05T05:56:49.489Z,51.18
2016-10-05T05:57:30.156Z,51.09
2016-10-05T05:58:10.856Z,50.89
2016-10-05T05:58:51.680Z,50.89
2016-10-05T05:59:33.250Z,50.8
2016-10-05T06:00:13.255Z,50.99
2016-10-05T06:00:53.951Z,50.99
2016-10-05T06:01:34.842Z,50.7
2016-10-05T06:02:16.015Z,50.6
2016-10-05T06:02:56.712Z,50.7
2016-10-05T06:03:37.387Z,50.6
2016-10-05T06:04:18.069Z,50.8
2016-10-05T06:04:58.760Z,50.8
2016-10-05T06:05:39.469Z,50.6
2016-10-05T06:06:20.168Z,50.51
2016-10-05T06:07:00.844Z,50.6
2016-10-05T06:07:41.513Z,50.89
2016-10-05T06:08:22.278Z,50.8
2016-10-05T06:09:02.979Z,50.6
2016-10-05T06:09:43.679Z,50.6
2016-10-05T06:10:24.365Z,50.51
2016-10-05T06:11:05.041Z,50.31
2016-10-05T06:11:45.780Z,50.53
2016-10-05T06:12:26.823Z,50.24
2016-10-05T06:13:07.668Z,50.43
2016-10-05T06:13:48.406Z,50.24
2016-10-05T06:14:29.074Z,50.34
2016-10-05T06:15:09.828Z,50.34
2016-10-05T06:15:50.452Z,50.14
2016-10-05T06:16:31.160Z,50.14
2016-10-05T06:17:11.842Z,49.95
2016-10-05T06:17:52.520Z,49.76
2016-10-05T06:18:33.236Z,49.76
2016-10-05T06:19:13.931Z,49.66
2016-10-05T06:19:54.609Z,49.85
2016-10-05T06:20:35.278Z,49.66
2016-10-05T06:21:16.851Z,49.95
2016-10-05T06:21:57.527Z,49.46
2016-10-05T06:22:38.180Z,50.24
2016-10-05T06:23:18.856Z,50.14
2016-10-05T06:23:59.543Z,49.95
2016-10-05T06:24:40.250Z,50.04
2016-10-05T06:25:20.947Z,50.14
2016-10-05T06:26:01.666Z,50.14
2016-10-05T06:26:42.368Z,49.46
2016-10-05T06:27:23.071Z,48.39
2016-10-05T06:28:03.799Z,48.2
2016-10-05T06:28:44.496Z,48
2016-10-05T06:29:25.176Z,48.39
2016-10-05T06:30:05.878Z,48
2016-10-05T06:30:46.583Z,48.2
2016-10-05T06:31:27.259Z,48.2
2016-10-05T06:32:07.923Z,48.3
2016-10-05T06:32:48.599Z,48.2
2016-10-05T06:33:29.318Z,48.39
2016-10-05T06:34:10.390Z,48.1
2016-10-05T06:34:50.957Z,47.98
2016-10-05T06:35:31.659Z,47.98
2016-10-05T06:36:12.354Z,48.08
2016-10-05T06:36:53.082Z,47.78
2016-10-05T06:37:33.757Z,47.78
2016-10-05T06:38:14.480Z,47.4
2016-10-05T06:38:55.175Z,46.81
2016-10-05T06:39:36.379Z,46.81
2016-10-05T06:40:17.081Z,46.52
2016-10-05T06:40:57.743Z,46.14
2016-10-05T06:41:38.648Z,46.72
2016-10-05T06:42:19.352Z,45.75
2016-10-05T06:43:00.015Z,45.75
2016-10-05T06:43:40.706Z,45.36
2016-10-05T06:44:21.432Z,45.36
2016-10-05T06:45:02.151Z,45.45
2016-10-05T06:45:42.852Z,45.65
2016-10-05T06:46:23.556Z,45.84
2016-10-05T06:47:04.254Z,44.68
2016-10-05T06:47:44.950Z,44.68
2016-10-05T06:48:25.614Z,44.78
2016-10-05T06:49:06.325Z,44.29
2016-10-05T06:49:47.729Z,44.38
2016-10-05T06:50:28.419Z,44.58
2016-10-05T06:51:09.130Z,44.09
2016-10-05T06:51:49.848Z,44
2016-10-05T06:52:30.528Z,43.9
2016-10-05T06:53:11.243Z,44.09
2016-10-05T06:53:51.937Z,43.9
2016-10-05T06:54:32.633Z,43.8
2016-10-05T06:55:13.346Z,43.9
2016-10-05T06:55:54.050Z,43.51
2016-10-05T06:56:34.816Z,43.61
2016-10-05T06:57:15.527Z,43.22
2016-10-05T06:57:56.234Z,42.81
2016-10-05T06:58:36.954Z,42.61
2016-10-05T06:59:17.676Z,42.83
2016-10-05T06:59:58.329Z,42.44
2016-10-05T07:00:39.046Z,42.35
2016-10-05T07:01:19.738Z,42.64
2016-10-05T07:02:01.446Z,42.52
2016-10-05T07:02:42.244Z,42.05
2016-10-05T07:03:23.000Z,42.54
2016-10-05T07:04:03.691Z,42.05
2016-10-05T07:04:44.402Z,42.15
2016-10-05T07:05:25.129Z,41.74
2016-10-05T07:06:05.817Z,41.84
2016-10-05T07:06:46.514Z,41.94
2016-10-05T07:07:27.234Z,41.86
2016-10-05T07:08:07.926Z,41.55
2016-10-05T07:08:48.667Z,41.64
2016-10-05T07:09:29.398Z,41.55
2016-10-05T07:10:10.075Z,41.64
2016-10-05T07:10:50.803Z,41.74
2016-10-05T07:11:31.480Z,41.06
2016-10-05T07:12:12.232Z,41.16
2016-10-05T07:12:52.903Z,41.26
2016-10-05T07:13:33.625Z,40.87
2016-10-05T07:14:14.328Z,40.67
2016-10-05T07:14:55.009Z,40.89
2016-10-05T07:15:35.709Z,40.77
2016-10-05T07:16:16.409Z,40.6
2016-10-05T07:16:57.080Z,40.97
2016-10-05T07:17:37.792Z,40.67
2016-10-05T07:18:19.299Z,40.48
2016-10-05T07:18:59.217Z,40.67
2016-10-05T07:19:39.896Z,40.48
2016-10-05T07:20:21.406Z,40.19
2016-10-05T07:21:02.135Z,40.67
2016-10-05T07:21:42.834Z,40.29
2016-10-05T07:22:23.556Z,40.29
2016-10-05T07:23:04.240Z,40.29
2016-10-05T07:23:44.964Z,40.58
2016-10-05T07:24:25.638Z,39.9
2016-10-05T07:25:07.143Z,39.9
2016-10-05T07:25:47.805Z,40.09
2016-10-05T07:26:28.480Z,40.09
2016-10-05T07:27:09.122Z,40.09
2016-10-05T07:27:49.848Z,39.8
2016-10-05T07:28:30.525Z,39.7
2016-10-05T07:29:11.220Z,39.61
2016-10-05T07:29:51.922Z,39.61
2016-10-05T07:30:32.661Z,39.61
2016-10-05T07:31:13.412Z,39.32
2016-10-05T07:31:54.114Z,38.83
2016-10-05T07:32:34.800Z,39.32
2016-10-05T07:33:15.446Z,39.51
2016-10-05T07:33:56.104Z,39.8
2016-10-05T07:34:36.799Z,39.61
2016-10-05T07:35:17.497Z,39.03
2016-10-05T07:35:58.224Z,39.9
2016-10-05T07:36:38.940Z,39.12
2016-10-05T07:37:19.665Z,39.22
2016-10-05T07:38:00.546Z,39.22
2016-10-05T07:38:41.227Z,39.12
2016-10-05T07:39:21.915Z,39.22
2016-10-05T07:40:07.522Z,38.93
2016-10-05T07:40:49.976Z,38.93
2016-10-05T07:41:32.695Z,40.09
2016-10-05T07:42:15.586Z,39.32
2016-10-05T07:42:56.500Z,39.61
2016-10-05T07:43:39.942Z,39.12
2016-10-05T07:44:20.775Z,40
2016-10-05T07:45:01.843Z,39.61
2016-10-05T07:45:42.957Z,39.22
2016-10-05T07:49:03.254Z,39.12
2016-10-05T07:49:44.097Z,39.32
2016-10-05T07:50:25.486Z,40
2016-10-05T07:51:07.174Z,38.83
2016-10-05T07:51:50.946Z,40
2016-10-05T07:52:33.051Z,39.8
2016-10-05T07:53:17.215Z,39.12
2016-10-05T07:53:58.009Z,39.43
2016-10-05T07:54:38.877Z,38.65
2016-10-05T07:55:20.894Z,39.03
2016-10-05T07:56:08.319Z,38.83
2016-10-05T07:56:54.226Z,38.25
2016-10-05T07:57:35.514Z,39.03
2016-10-05T07:58:16.212Z,39.34
2016-10-05T07:58:57.784Z,38.64
2016-10-05T07:59:40.020Z,39.24
2016-10-05T08:00:20.737Z,38.65
2016-10-05T08:01:01.420Z,38.93
2016-10-05T08:01:43.707Z,38.54
2016-10-05T08:02:25.241Z,38.54
2016-10-05T08:03:05.952Z,38.95
2016-10-05T08:05:24.173Z,38.73
2016-10-05T08:06:04.959Z,38.65
2016-10-05T08:06:45.710Z,38.64
2016-10-05T08:07:27.415Z,38.83
2016-10-05T08:08:08.123Z,39.04
2016-10-05T08:08:50.325Z,38.44
2016-10-05T08:09:31.086Z,38.34
2016-10-05T08:10:12.678Z,38.46
2016-10-05T08:10:54.466Z,37.96
2016-10-05T08:11:35.164Z,38.73
2016-10-05T08:12:16.836Z,38.64
2016-10-05T08:12:57.718Z,39.7
2016-10-05T08:13:38.421Z,39.9
2016-10-05T08:14:19.435Z,39.8
2016-10-05T08:15:00.201Z,39.69
2016-10-05T08:15:41.010Z,40.61
2016-10-05T08:16:22.462Z,41.3
2016-10-05T08:17:03.748Z,42.32
2016-10-05T08:17:44.641Z,42.41
2016-10-05T08:18:26.102Z,43.29
2016-10-05T08:19:06.092Z,42.9
2016-10-05T08:19:46.801Z,44.16
2016-10-05T08:20:27.494Z,44.62
2016-10-05T08:21:08.192Z,45.61
2016-10-05T08:21:50.571Z,45.78
2016-10-05T08:22:31.324Z,46.26
2016-10-05T08:23:13.688Z,47.04
2016-10-05T08:23:54.385Z,46.46
2016-10-05T08:24:35.068Z,46.26
2016-10-05T08:25:15.788Z,46.25
2016-10-05T08:25:56.434Z,46.53
2016-10-05T08:26:38.756Z,46.34
2016-10-05T08:27:19.457Z,45.78
2016-10-05T08:28:02.137Z,45.18
2016-10-05T08:28:42.608Z,45.18
2016-10-05T08:29:23.091Z,45.76
2016-10-05T08:30:03.789Z,45.18
2016-10-05T08:30:44.476Z,45.59
2016-10-05T08:31:25.197Z,45.18
2016-10-05T08:32:05.887Z,45.83
2016-10-05T08:32:46.585Z,45.28
2016-10-05T08:33:29.206Z,45.37
2016-10-05T08:34:10.088Z,45.37
2016-10-05T08:34:52.631Z,45.37
2016-10-05T08:35:33.316Z,45.25
2016-10-05T08:36:14.174Z,46.32
2016-10-05T08:36:55.079Z,47.69
2016-10-05T08:37:35.794Z,48.08
2016-10-05T08:38:16.519Z,48.08
2016-10-05T08:38:57.218Z,48.57
2016-10-05T08:39:37.914Z,48.57
2016-10-05T08:40:18.674Z,48.76
2016-10-05T08:40:59.396Z,48.86
2016-10-05T08:41:40.098Z,49.05
2016-10-05T08:42:20.792Z,48.76
2016-10-05T08:43:01.500Z,48.18
2016-10-05T08:43:42.170Z,48.27
2016-10-05T08:44:22.862Z,48.47
2016-10-05T08:45:03.947Z,49.02
2016-10-05T08:45:47.155Z,48.57
2016-10-05T08:46:27.893Z,48.08
2016-10-05T08:47:08.606Z,48.08
2016-10-05T08:47:49.986Z,48.06
2016-10-05T08:48:30.746Z,48.06
2016-10-05T08:49:11.421Z,48.35
2016-10-05T08:49:52.092Z,48.25
2016-10-05T08:50:32.758Z,48.66
2016-10-05T08:51:13.452Z,48.57
2016-10-05T08:51:54.129Z,48.47
2016-10-05T08:52:34.886Z,48.06